sensor_id;sensor_type;location;lat;lon;timestamp;P1;durP1;ratioP1;P2;durP2;ratioP2
52724;SDS011;38621;52.830;6.914;2022-11-25T00:01:10;7.28;;;1.98;;
52724;SDS011;38621;52.830;6.914;2022-11-25T00:03:38;6.18;;;2.65;;
52724;SDS011;38621;52.830;6.914;2022-11-25T00:06:12;7.60;;;3.33;;
52724;SDS011;38621;52.830;6.914;2022-11-25T00:08:46;5.72;;;2.20;;
52724;SDS011;38621;52.830;6.914;2022-11-25T00:11:13;4.18;;;1.73;;
52724;SDS011;38621;52.830;6.914;2022-11-25T00:13:40;7.82;;;2.47;;
52724;SDS011;38621;52.830;6.914;2022-11-25T00:16:08;6.70;;;2.00;;
52724;SDS011;38621;52.830;6.914;2022-11-25T00:18:35;4.80;;;2.08;;
52724;SDS011;38621;52.830;6.914;2022-11-25T00:21:08;7.05;;;1.95;;
52724;SDS011;38621;52.830;6.914;2022-11-25T00:23:36;5.40;;;1.77;;
52724;SDS011;38621;52.830;6.914;2022-11-25T00:26:08;6.47;;;2.53;;
52724;SDS011;38621;52.830;6.914;2022-11-25T00:28:36;5.75;;;2.10;;
52724;SDS011;38621;52.830;6.914;2022-11-25T00:31:03;5.03;;;2.13;;
52724;SDS011;38621;52.830;6.914;2022-11-25T00:33:33;6.18;;;2.00;;
52724;SDS011;38621;52.830;6.914;2022-11-25T00:36:02;6.65;;;2.00;;
52724;SDS011;38621;52.830;6.914;2022-11-25T00:38:29;8.55;;;2.28;;
52724;SDS011;38621;52.830;6.914;2022-11-25T00:40:55;7.65;;;2.28;;
52724;SDS011;38621;52.830;6.914;2022-11-25T00:43:39;3.55;;;1.63;;
52724;SDS011;38621;52.830;6.914;2022-11-25T00:46:23;4.35;;;1.80;;
52724;SDS011;38621;52.830;6.914;2022-11-25T00:48:49;5.60;;;1.83;;
52724;SDS011;38621;52.830;6.914;2022-11-25T00:51:15;7.00;;;2.63;;
52724;SDS011;38621;52.830;6.914;2022-11-25T00:53:40;6.75;;;2.25;;
52724;SDS011;38621;52.830;6.914;2022-11-25T00:56:06;8.00;;;2.03;;
52724;SDS011;38621;52.830;6.914;2022-11-25T00:58:38;5.53;;;1.90;;
52724;SDS011;38621;52.830;6.914;2022-11-25T01:01:04;6.43;;;2.20;;
52724;SDS011;38621;52.830;6.914;2022-11-25T01:03:30;8.30;;;2.47;;
52724;SDS011;38621;52.830;6.914;2022-11-25T01:06:00;4.65;;;1.98;;
52724;SDS011;38621;52.830;6.914;2022-11-25T01:08:26;5.30;;;1.77;;
52724;SDS011;38621;52.830;6.914;2022-11-25T01:11:07;6.07;;;2.47;;
52724;SDS011;38621;52.830;6.914;2022-11-25T01:13:35;7.47;;;2.65;;
52724;SDS011;38621;52.830;6.914;2022-11-25T01:16:04;7.38;;;2.35;;
52724;SDS011;38621;52.830;6.914;2022-11-25T01:18:31;7.40;;;2.53;;
52724;SDS011;38621;52.830;6.914;2022-11-25T01:21:14;4.80;;;1.90;;
52724;SDS011;38621;52.830;6.914;2022-11-25T01:23:41;5.43;;;1.95;;
52724;SDS011;38621;52.830;6.914;2022-11-25T01:26:12;5.28;;;1.75;;
52724;SDS011;38621;52.830;6.914;2022-11-25T01:28:40;5.38;;;2.10;;
52724;SDS011;38621;52.830;6.914;2022-11-25T01:31:10;10.82;;;2.92;;
52724;SDS011;38621;52.830;6.914;2022-11-25T01:33:36;5.72;;;1.98;;
52724;SDS011;38621;52.830;6.914;2022-11-25T01:36:07;6.10;;;1.75;;
52724;SDS011;38621;52.830;6.914;2022-11-25T01:38:40;4.47;;;1.90;;
52724;SDS011;38621;52.830;6.914;2022-11-25T01:41:07;7.50;;;1.77;;
52724;SDS011;38621;52.830;6.914;2022-11-25T01:43:34;6.18;;;2.40;;
52724;SDS011;38621;52.830;6.914;2022-11-25T01:46:04;5.80;;;2.15;;
52724;SDS011;38621;52.830;6.914;2022-11-25T01:48:42;3.97;;;1.83;;
52724;SDS011;38621;52.830;6.914;2022-11-25T01:51:57;5.63;;;1.77;;
52724;SDS011;38621;52.830;6.914;2022-11-25T01:54:11;4.32;;;1.80;;
52724;SDS011;38621;52.830;6.914;2022-11-25T01:56:48;7.18;;;1.70;;
52724;SDS011;38621;52.830;6.914;2022-11-25T01:59:18;7.63;;;3.45;;
52724;SDS011;38621;52.830;6.914;2022-11-25T02:01:44;5.20;;;2.00;;
52724;SDS011;38621;52.830;6.914;2022-11-25T02:04:10;7.47;;;2.05;;
52724;SDS011;38621;52.830;6.914;2022-11-25T02:06:39;13.80;;;2.05;;
52724;SDS011;38621;52.830;6.914;2022-11-25T02:09:10;5.75;;;1.90;;
52724;SDS011;38621;52.830;6.914;2022-11-25T02:11:37;7.68;;;2.22;;
52724;SDS011;38621;52.830;6.914;2022-11-25T02:14:05;5.53;;;2.03;;
52724;SDS011;38621;52.830;6.914;2022-11-25T02:16:32;4.35;;;1.88;;
52724;SDS011;38621;52.830;6.914;2022-11-25T02:18:58;4.00;;;1.67;;
52724;SDS011;38621;52.830;6.914;2022-11-25T02:21:25;7.65;;;2.75;;
52724;SDS011;38621;52.830;6.914;2022-11-25T02:24:13;5.28;;;2.10;;
52724;SDS011;38621;52.830;6.914;2022-11-25T02:26:49;8.07;;;2.40;;
52724;SDS011;38621;52.830;6.914;2022-11-25T02:29:15;5.57;;;2.00;;
52724;SDS011;38621;52.830;6.914;2022-11-25T02:31:40;8.27;;;3.40;;
52724;SDS011;38621;52.830;6.914;2022-11-25T02:34:08;6.15;;;2.40;;
52724;SDS011;38621;52.830;6.914;2022-11-25T02:36:34;9.82;;;2.28;;
52724;SDS011;38621;52.830;6.914;2022-11-25T02:39:00;5.15;;;2.00;;
52724;SDS011;38621;52.830;6.914;2022-11-25T02:41:40;6.97;;;2.83;;
52724;SDS011;38621;52.830;6.914;2022-11-25T02:44:09;5.90;;;1.85;;
52724;SDS011;38621;52.830;6.914;2022-11-25T02:46:34;6.30;;;2.50;;
52724;SDS011;38621;52.830;6.914;2022-11-25T02:49:00;6.22;;;2.25;;
52724;SDS011;38621;52.830;6.914;2022-11-25T02:51:28;8.88;;;3.30;;
52724;SDS011;38621;52.830;6.914;2022-11-25T02:53:55;7.07;;;3.05;;
52724;SDS011;38621;52.830;6.914;2022-11-25T02:56:22;5.50;;;2.10;;
52724;SDS011;38621;52.830;6.914;2022-11-25T02:58:50;8.85;;;3.22;;
52724;SDS011;38621;52.830;6.914;2022-11-25T03:01:15;6.40;;;2.10;;
52724;SDS011;38621;52.830;6.914;2022-11-25T03:03:41;5.25;;;2.45;;
52724;SDS011;38621;52.830;6.914;2022-11-25T03:06:07;7.28;;;2.28;;
52724;SDS011;38621;52.830;6.914;2022-11-25T03:08:33;5.80;;;2.00;;
52724;SDS011;38621;52.830;6.914;2022-11-25T03:11:00;6.78;;;2.22;;
52724;SDS011;38621;52.830;6.914;2022-11-25T03:13:26;6.47;;;2.20;;
52724;SDS011;38621;52.830;6.914;2022-11-25T03:15:52;6.10;;;2.03;;
52724;SDS011;38621;52.830;6.914;2022-11-25T03:18:18;10.48;;;2.30;;
52724;SDS011;38621;52.830;6.914;2022-11-25T03:20:44;11.73;;;3.50;;
52724;SDS011;38621;52.830;6.914;2022-11-25T03:23:09;8.63;;;2.72;;
52724;SDS011;38621;52.830;6.914;2022-11-25T03:25:35;9.40;;;2.15;;
52724;SDS011;38621;52.830;6.914;2022-11-25T03:28:01;7.10;;;2.28;;
52724;SDS011;38621;52.830;6.914;2022-11-25T03:30:28;8.00;;;2.63;;
52724;SDS011;38621;52.830;6.914;2022-11-25T03:32:54;4.60;;;1.98;;
52724;SDS011;38621;52.830;6.914;2022-11-25T03:35:20;8.32;;;2.13;;
52724;SDS011;38621;52.830;6.914;2022-11-25T03:37:47;7.57;;;2.60;;
52724;SDS011;38621;52.830;6.914;2022-11-25T03:40:13;6.80;;;1.95;;
52724;SDS011;38621;52.830;6.914;2022-11-25T03:42:39;9.05;;;2.17;;
52724;SDS011;38621;52.830;6.914;2022-11-25T03:45:05;9.02;;;2.85;;
52724;SDS011;38621;52.830;6.914;2022-11-25T03:47:32;5.40;;;2.17;;
52724;SDS011;38621;52.830;6.914;2022-11-25T03:49:58;7.40;;;2.90;;
52724;SDS011;38621;52.830;6.914;2022-11-25T03:52:23;7.30;;;2.20;;
52724;SDS011;38621;52.830;6.914;2022-11-25T03:54:49;8.23;;;3.85;;
52724;SDS011;38621;52.830;6.914;2022-11-25T03:57:15;5.20;;;1.83;;
52724;SDS011;38621;52.830;6.914;2022-11-25T03:59:41;7.03;;;3.10;;
52724;SDS011;38621;52.830;6.914;2022-11-25T04:02:07;5.85;;;2.28;;
52724;SDS011;38621;52.830;6.914;2022-11-25T04:04:33;5.15;;;2.38;;
52724;SDS011;38621;52.830;6.914;2022-11-25T04:06:58;5.70;;;2.40;;
52724;SDS011;38621;52.830;6.914;2022-11-25T04:09:24;8.70;;;2.30;;
52724;SDS011;38621;52.830;6.914;2022-11-25T04:11:50;6.03;;;2.15;;
52724;SDS011;38621;52.830;6.914;2022-11-25T04:14:34;5.97;;;2.30;;
52724;SDS011;38621;52.830;6.914;2022-11-25T04:17:00;6.15;;;2.08;;
52724;SDS011;38621;52.830;6.914;2022-11-25T04:19:25;7.38;;;2.20;;
52724;SDS011;38621;52.830;6.914;2022-11-25T04:21:51;7.28;;;2.33;;
52724;SDS011;38621;52.830;6.914;2022-11-25T04:24:17;8.50;;;2.22;;
52724;SDS011;38621;52.830;6.914;2022-11-25T04:26:43;7.68;;;2.20;;
52724;SDS011;38621;52.830;6.914;2022-11-25T04:29:09;6.82;;;2.33;;
52724;SDS011;38621;52.830;6.914;2022-11-25T04:31:35;8.45;;;2.50;;
52724;SDS011;38621;52.830;6.914;2022-11-25T04:34:02;7.78;;;2.70;;
52724;SDS011;38621;52.830;6.914;2022-11-25T04:36:29;7.90;;;2.65;;
52724;SDS011;38621;52.830;6.914;2022-11-25T04:38:54;9.70;;;3.42;;
52724;SDS011;38621;52.830;6.914;2022-11-25T04:41:20;8.75;;;2.55;;
52724;SDS011;38621;52.830;6.914;2022-11-25T04:43:46;8.25;;;2.40;;
52724;SDS011;38621;52.830;6.914;2022-11-25T04:46:19;4.30;;;2.10;;
52724;SDS011;38621;52.830;6.914;2022-11-25T04:48:48;7.88;;;2.45;;
52724;SDS011;38621;52.830;6.914;2022-11-25T04:51:14;5.95;;;2.22;;
52724;SDS011;38621;52.830;6.914;2022-11-25T04:53:40;8.07;;;3.35;;
52724;SDS011;38621;52.830;6.914;2022-11-25T04:56:06;7.35;;;2.53;;
52724;SDS011;38621;52.830;6.914;2022-11-25T04:58:33;4.78;;;2.30;;
52724;SDS011;38621;52.830;6.914;2022-11-25T05:01:17;5.90;;;2.30;;
52724;SDS011;38621;52.830;6.914;2022-11-25T05:03:42;7.28;;;2.45;;
52724;SDS011;38621;52.830;6.914;2022-11-25T05:06:08;7.80;;;3.53;;
52724;SDS011;38621;52.830;6.914;2022-11-25T05:08:34;6.35;;;2.60;;
52724;SDS011;38621;52.830;6.914;2022-11-25T05:11:00;7.10;;;2.50;;
52724;SDS011;38621;52.830;6.914;2022-11-25T05:13:26;7.13;;;2.30;;
52724;SDS011;38621;52.830;6.914;2022-11-25T05:15:52;4.82;;;2.30;;
52724;SDS011;38621;52.830;6.914;2022-11-25T05:18:17;6.43;;;2.60;;
52724;SDS011;38621;52.830;6.914;2022-11-25T05:20:43;7.70;;;2.70;;
52724;SDS011;38621;52.830;6.914;2022-11-25T05:23:09;5.65;;;2.05;;
52724;SDS011;38621;52.830;6.914;2022-11-25T05:25:35;7.57;;;2.42;;
52724;SDS011;38621;52.830;6.914;2022-11-25T05:28:00;8.40;;;2.38;;
52724;SDS011;38621;52.830;6.914;2022-11-25T05:30:26;6.25;;;2.85;;
52724;SDS011;38621;52.830;6.914;2022-11-25T05:32:52;6.90;;;2.63;;
52724;SDS011;38621;52.830;6.914;2022-11-25T05:35:18;7.13;;;2.63;;
52724;SDS011;38621;52.830;6.914;2022-11-25T05:37:45;6.78;;;2.95;;
52724;SDS011;38621;52.830;6.914;2022-11-25T05:40:11;8.23;;;3.92;;
52724;SDS011;38621;52.830;6.914;2022-11-25T05:42:37;9.25;;;2.80;;
52724;SDS011;38621;52.830;6.914;2022-11-25T05:45:03;9.20;;;3.08;;
52724;SDS011;38621;52.830;6.914;2022-11-25T05:47:29;5.13;;;3.03;;
52724;SDS011;38621;52.830;6.914;2022-11-25T05:49:55;7.75;;;3.17;;
52724;SDS011;38621;52.830;6.914;2022-11-25T05:52:21;6.72;;;3.20;;
52724;SDS011;38621;52.830;6.914;2022-11-25T05:54:46;6.50;;;3.30;;
52724;SDS011;38621;52.830;6.914;2022-11-25T05:57:12;7.03;;;3.22;;
52724;SDS011;38621;52.830;6.914;2022-11-25T05:59:37;7.05;;;3.70;;
52724;SDS011;38621;52.830;6.914;2022-11-25T06:02:03;9.73;;;4.20;;
52724;SDS011;38621;52.830;6.914;2022-11-25T06:04:29;9.50;;;3.47;;
52724;SDS011;38621;52.830;6.914;2022-11-25T06:06:55;7.75;;;2.90;;
52724;SDS011;38621;52.830;6.914;2022-11-25T06:09:20;9.82;;;3.60;;
52724;SDS011;38621;52.830;6.914;2022-11-25T06:11:46;7.85;;;3.28;;
52724;SDS011;38621;52.830;6.914;2022-11-25T06:14:11;9.45;;;4.00;;
52724;SDS011;38621;52.830;6.914;2022-11-25T06:16:37;6.88;;;3.97;;
52724;SDS011;38621;52.830;6.914;2022-11-25T06:19:04;8.65;;;3.90;;
52724;SDS011;38621;52.830;6.914;2022-11-25T06:21:30;8.13;;;4.25;;
52724;SDS011;38621;52.830;6.914;2022-11-25T06:23:57;11.30;;;4.10;;
52724;SDS011;38621;52.830;6.914;2022-11-25T06:26:22;7.43;;;4.30;;
52724;SDS011;38621;52.830;6.914;2022-11-25T06:28:51;9.02;;;4.82;;
52724;SDS011;38621;52.830;6.914;2022-11-25T06:31:18;10.90;;;4.80;;
52724;SDS011;38621;52.830;6.914;2022-11-25T06:33:46;9.23;;;4.07;;
52724;SDS011;38621;52.830;6.914;2022-11-25T06:36:13;10.13;;;4.57;;
52724;SDS011;38621;52.830;6.914;2022-11-25T06:38:59;9.38;;;5.15;;
52724;SDS011;38621;52.830;6.914;2022-11-25T06:41:24;10.27;;;4.38;;
52724;SDS011;38621;52.830;6.914;2022-11-25T06:43:50;11.30;;;4.63;;
52724;SDS011;38621;52.830;6.914;2022-11-25T06:46:16;9.50;;;4.22;;
52724;SDS011;38621;52.830;6.914;2022-11-25T06:48:44;8.57;;;3.90;;
52724;SDS011;38621;52.830;6.914;2022-11-25T06:51:10;7.97;;;3.45;;
52724;SDS011;38621;52.830;6.914;2022-11-25T06:53:37;8.27;;;3.95;;
52724;SDS011;38621;52.830;6.914;2022-11-25T06:56:04;10.77;;;4.32;;
52724;SDS011;38621;52.830;6.914;2022-11-25T06:58:35;7.72;;;3.53;;
52724;SDS011;38621;52.830;6.914;2022-11-25T07:01:06;8.68;;;3.85;;
52724;SDS011;38621;52.830;6.914;2022-11-25T07:03:53;8.55;;;4.93;;
52724;SDS011;38621;52.830;6.914;2022-11-25T07:06:20;8.40;;;3.97;;
52724;SDS011;38621;52.830;6.914;2022-11-25T07:08:47;6.97;;;3.35;;
52724;SDS011;38621;52.830;6.914;2022-11-25T07:13:47;7.97;;;4.05;;
52724;SDS011;38621;52.830;6.914;2022-11-25T07:16:15;7.00;;;3.50;;
52724;SDS011;38621;52.830;6.914;2022-11-25T07:18:41;7.65;;;4.28;;
52724;SDS011;38621;52.830;6.914;2022-11-25T07:21:07;8.15;;;3.40;;
52724;SDS011;38621;52.830;6.914;2022-11-25T07:23:35;7.05;;;3.00;;
52724;SDS011;38621;52.830;6.914;2022-11-25T07:26:05;8.95;;;3.08;;
52724;SDS011;38621;52.830;6.914;2022-11-25T07:28:35;5.50;;;2.88;;
52724;SDS011;38621;52.830;6.914;2022-11-25T07:31:08;9.75;;;3.13;;
52724;SDS011;38621;52.830;6.914;2022-11-25T07:33:42;6.15;;;2.72;;
52724;SDS011;38621;52.830;6.914;2022-11-25T07:36:09;6.90;;;2.95;;
52724;SDS011;38621;52.830;6.914;2022-11-25T07:38:36;7.05;;;3.22;;
52724;SDS011;38621;52.830;6.914;2022-11-25T07:43:35;5.65;;;2.50;;
52724;SDS011;38621;52.830;6.914;2022-11-25T07:46:11;6.97;;;3.10;;
52724;SDS011;38621;52.830;6.914;2022-11-25T07:48:38;6.72;;;2.90;;
52724;SDS011;38621;52.830;6.914;2022-11-25T07:51:12;6.95;;;2.80;;
52724;SDS011;38621;52.830;6.914;2022-11-25T07:53:45;9.02;;;2.97;;
52724;SDS011;38621;52.830;6.914;2022-11-25T07:56:12;8.45;;;3.13;;
52724;SDS011;38621;52.830;6.914;2022-11-25T07:58:39;5.97;;;2.80;;
52724;SDS011;38621;52.830;6.914;2022-11-25T08:01:07;5.32;;;2.72;;
52724;SDS011;38621;52.830;6.914;2022-11-25T08:03:34;7.47;;;2.55;;
52724;SDS011;38621;52.830;6.914;2022-11-25T08:06:05;5.50;;;2.75;;
52724;SDS011;38621;52.830;6.914;2022-11-25T08:08:33;5.07;;;2.47;;
52724;SDS011;38621;52.830;6.914;2022-11-25T08:11:00;6.60;;;2.17;;
52724;SDS011;38621;52.830;6.914;2022-11-25T08:13:30;5.07;;;2.78;;
52724;SDS011;38621;52.830;6.914;2022-11-25T08:15:57;5.22;;;2.53;;
52724;SDS011;38621;52.830;6.914;2022-11-25T08:18:24;7.25;;;2.90;;
52724;SDS011;38621;52.830;6.914;2022-11-25T08:20:50;5.78;;;2.55;;
52724;SDS011;38621;52.830;6.914;2022-11-25T08:23:15;5.13;;;2.60;;
52724;SDS011;38621;52.830;6.914;2022-11-25T08:25:42;6.47;;;2.83;;
52724;SDS011;38621;52.830;6.914;2022-11-25T08:28:08;4.45;;;2.47;;
52724;SDS011;38621;52.830;6.914;2022-11-25T08:30:34;7.05;;;2.17;;
52724;SDS011;38621;52.830;6.914;2022-11-25T08:33:00;5.22;;;2.33;;
52724;SDS011;38621;52.830;6.914;2022-11-25T08:35:29;4.63;;;2.55;;
52724;SDS011;38621;52.830;6.914;2022-11-25T08:37:55;5.65;;;2.53;;
52724;SDS011;38621;52.830;6.914;2022-11-25T08:40:20;5.88;;;2.88;;
52724;SDS011;38621;52.830;6.914;2022-11-25T08:42:46;4.47;;;2.40;;
52724;SDS011;38621;52.830;6.914;2022-11-25T08:45:12;6.47;;;2.78;;
52724;SDS011;38621;52.830;6.914;2022-11-25T08:47:38;6.15;;;2.85;;
52724;SDS011;38621;52.830;6.914;2022-11-25T08:50:05;6.70;;;2.90;;
52724;SDS011;38621;52.830;6.914;2022-11-25T08:52:33;5.03;;;2.70;;
52724;SDS011;38621;52.830;6.914;2022-11-25T08:54:58;6.43;;;2.83;;
52724;SDS011;38621;52.830;6.914;2022-11-25T08:57:24;6.00;;;2.88;;
52724;SDS011;38621;52.830;6.914;2022-11-25T08:59:50;4.80;;;2.58;;
52724;SDS011;38621;52.830;6.914;2022-11-25T09:02:15;7.78;;;3.38;;
52724;SDS011;38621;52.830;6.914;2022-11-25T09:04:42;7.45;;;3.05;;
52724;SDS011;38621;52.830;6.914;2022-11-25T09:07:08;5.70;;;3.03;;
52724;SDS011;38621;52.830;6.914;2022-11-25T09:09:34;6.90;;;3.55;;
52724;SDS011;38621;52.830;6.914;2022-11-25T09:12:00;4.35;;;2.45;;
52724;SDS011;38621;52.830;6.914;2022-11-25T09:14:25;6.55;;;2.70;;
52724;SDS011;38621;52.830;6.914;2022-11-25T09:16:51;6.05;;;3.50;;
52724;SDS011;38621;52.830;6.914;2022-11-25T09:19:18;6.88;;;3.05;;
52724;SDS011;38621;52.830;6.914;2022-11-25T09:21:44;6.82;;;3.20;;
52724;SDS011;38621;52.830;6.914;2022-11-25T09:24:10;6.75;;;3.20;;
52724;SDS011;38621;52.830;6.914;2022-11-25T09:26:35;7.00;;;3.13;;
52724;SDS011;38621;52.830;6.914;2022-11-25T09:29:05;7.05;;;3.30;;
52724;SDS011;38621;52.830;6.914;2022-11-25T09:31:31;6.07;;;3.20;;
52724;SDS011;38621;52.830;6.914;2022-11-25T09:33:56;5.40;;;3.00;;
52724;SDS011;38621;52.830;6.914;2022-11-25T09:36:22;8.20;;;3.45;;
52724;SDS011;38621;52.830;6.914;2022-11-25T09:38:49;7.57;;;3.17;;
52724;SDS011;38621;52.830;6.914;2022-11-25T09:47:18;7.93;;;3.55;;
52724;SDS011;38621;52.830;6.914;2022-11-25T09:52:29;4.85;;;2.75;;
52724;SDS011;38621;52.830;6.914;2022-11-25T09:55:20;5.63;;;2.63;;
52724;SDS011;38621;52.830;6.914;2022-11-25T10:00:41;5.15;;;2.80;;
52724;SDS011;38621;52.830;6.914;2022-11-25T10:03:19;4.85;;;2.80;;
52724;SDS011;38621;52.830;6.914;2022-11-25T10:08:51;4.30;;;2.53;;
52724;SDS011;38621;52.830;6.914;2022-11-25T10:11:41;8.13;;;2.83;;
52724;SDS011;38621;52.830;6.914;2022-11-25T10:14:24;4.25;;;2.50;;
52724;SDS011;38621;52.830;6.914;2022-11-25T10:19:38;5.28;;;2.60;;
52724;SDS011;38621;52.830;6.914;2022-11-25T10:22:21;5.25;;;2.63;;
52724;SDS011;38621;52.830;6.914;2022-11-25T10:24:48;5.13;;;2.40;;
52724;SDS011;38621;52.830;6.914;2022-11-25T10:27:18;4.63;;;2.03;;
52724;SDS011;38621;52.830;6.914;2022-11-25T10:30:12;4.40;;;2.17;;
52724;SDS011;38621;52.830;6.914;2022-11-25T10:35:39;4.25;;;2.42;;
52724;SDS011;38621;52.830;6.914;2022-11-25T10:38:14;4.22;;;1.98;;
52724;SDS011;38621;52.830;6.914;2022-11-25T10:40:46;5.68;;;2.45;;
52724;SDS011;38621;52.830;6.914;2022-11-25T10:43:14;5.13;;;1.85;;
52724;SDS011;38621;52.830;6.914;2022-11-25T10:45:43;3.50;;;1.90;;
52724;SDS011;38621;52.830;6.914;2022-11-25T10:48:17;6.80;;;2.20;;
52724;SDS011;38621;52.830;6.914;2022-11-25T10:51:02;5.53;;;1.85;;
52724;SDS011;38621;52.830;6.914;2022-11-25T10:57:00;5.82;;;2.50;;
52724;SDS011;38621;52.830;6.914;2022-11-25T11:07:16;5.53;;;2.42;;
52724;SDS011;38621;52.830;6.914;2022-11-25T11:09:42;6.25;;;2.40;;
52724;SDS011;38621;52.830;6.914;2022-11-25T11:12:13;7.60;;;2.20;;
52724;SDS011;38621;52.830;6.914;2022-11-25T11:14:51;5.60;;;2.20;;
52724;SDS011;38621;52.830;6.914;2022-11-25T11:17:26;5.05;;;2.00;;
52724;SDS011;38621;52.830;6.914;2022-11-25T11:19:58;5.82;;;1.90;;
52724;SDS011;38621;52.830;6.914;2022-11-25T11:22:26;5.32;;;1.90;;
52724;SDS011;38621;52.830;6.914;2022-11-25T11:25:03;6.13;;;2.13;;
52724;SDS011;38621;52.830;6.914;2022-11-25T11:27:31;5.38;;;2.00;;
52724;SDS011;38621;52.830;6.914;2022-11-25T11:30:08;6.00;;;2.00;;
52724;SDS011;38621;52.830;6.914;2022-11-25T11:32:38;7.35;;;2.50;;
52724;SDS011;38621;52.830;6.914;2022-11-25T11:35:20;3.35;;;1.95;;
52724;SDS011;38621;52.830;6.914;2022-11-25T11:37:54;5.25;;;2.10;;
52724;SDS011;38621;52.830;6.914;2022-11-25T11:40:36;6.22;;;2.33;;
52724;SDS011;38621;52.830;6.914;2022-11-25T11:45:53;5.30;;;1.83;;
52724;SDS011;38621;52.830;6.914;2022-11-25T11:48:39;4.40;;;1.92;;
52724;SDS011;38621;52.830;6.914;2022-11-25T11:51:35;4.25;;;2.22;;
52724;SDS011;38621;52.830;6.914;2022-11-25T11:56:39;4.07;;;1.92;;
52724;SDS011;38621;52.830;6.914;2022-11-25T12:06:46;3.40;;;1.38;;
52724;SDS011;38621;52.830;6.914;2022-11-25T12:09:28;6.55;;;2.30;;
52724;SDS011;38621;52.830;6.914;2022-11-25T12:11:59;6.60;;;2.03;;
52724;SDS011;38621;52.830;6.914;2022-11-25T12:14:39;4.82;;;1.90;;
52724;SDS011;38621;52.830;6.914;2022-11-25T12:17:12;4.38;;;1.60;;
52724;SDS011;38621;52.830;6.914;2022-11-25T12:19:46;4.85;;;1.83;;
52724;SDS011;38621;52.830;6.914;2022-11-25T12:27:38;4.90;;;1.98;;
52724;SDS011;38621;52.830;6.914;2022-11-25T12:30:18;6.45;;;2.15;;
52724;SDS011;38621;52.830;6.914;2022-11-25T12:35:18;4.72;;;1.35;;
52724;SDS011;38621;52.830;6.914;2022-11-25T12:37:51;4.00;;;1.73;;
52724;SDS011;38621;52.830;6.914;2022-11-25T12:42:59;4.07;;;1.50;;
52724;SDS011;38621;52.830;6.914;2022-11-25T12:45:50;5.47;;;1.92;;
52724;SDS011;38621;52.830;6.914;2022-11-25T12:48:25;3.28;;;1.40;;
52724;SDS011;38621;52.830;6.914;2022-11-25T12:50:55;4.32;;;1.67;;
52724;SDS011;38621;52.830;6.914;2022-11-25T12:53:38;4.35;;;1.60;;
52724;SDS011;38621;52.830;6.914;2022-11-25T13:01:53;5.53;;;1.60;;
52724;SDS011;38621;52.830;6.914;2022-11-25T13:17:53;10.20;;;2.17;;
52724;SDS011;38621;52.830;6.914;2022-11-25T13:23:00;5.22;;;1.85;;
52724;SDS011;38621;52.830;6.914;2022-11-25T13:25:29;6.25;;;2.58;;
52724;SDS011;38621;52.830;6.914;2022-11-25T13:27:57;5.63;;;1.80;;
52724;SDS011;38621;52.830;6.914;2022-11-25T13:32:56;4.97;;;1.60;;
52724;SDS011;38621;52.830;6.914;2022-11-25T13:43:35;6.20;;;2.08;;
52724;SDS011;38621;52.830;6.914;2022-11-25T13:46:29;5.38;;;1.88;;
52724;SDS011;38621;52.830;6.914;2022-11-25T13:49:22;5.40;;;1.80;;
52724;SDS011;38621;52.830;6.914;2022-11-25T14:15:26;7.90;;;1.85;;
52724;SDS011;38621;52.830;6.914;2022-11-25T14:18:08;6.60;;;1.65;;
52724;SDS011;38621;52.830;6.914;2022-11-25T14:20:44;4.18;;;1.60;;
52724;SDS011;38621;52.830;6.914;2022-11-25T14:26:19;4.43;;;1.70;;
52724;SDS011;38621;52.830;6.914;2022-11-25T14:31:49;4.32;;;1.73;;
52724;SDS011;38621;52.830;6.914;2022-11-25T14:34:25;4.88;;;1.70;;
52724;SDS011;38621;52.830;6.914;2022-11-25T14:37:08;6.05;;;1.98;;
52724;SDS011;38621;52.830;6.914;2022-11-25T14:39:54;6.43;;;1.83;;
52724;SDS011;38621;52.830;6.914;2022-11-25T14:42:26;7.80;;;1.92;;
52724;SDS011;38621;52.830;6.914;2022-11-25T14:44:56;4.80;;;2.00;;
52724;SDS011;38621;52.830;6.914;2022-11-25T14:47:25;4.53;;;1.45;;
52724;SDS011;38621;52.830;6.914;2022-11-25T14:49:53;6.70;;;1.65;;
52724;SDS011;38621;52.830;6.914;2022-11-25T14:52:31;7.40;;;2.08;;
52724;SDS011;38621;52.830;6.914;2022-11-25T14:54:59;6.05;;;1.80;;
52724;SDS011;38621;52.830;6.914;2022-11-25T14:57:29;3.72;;;1.60;;
52724;SDS011;38621;52.830;6.914;2022-11-25T15:00:17;5.68;;;1.77;;
52724;SDS011;38621;52.830;6.914;2022-11-25T15:02:57;5.70;;;1.85;;
52724;SDS011;38621;52.830;6.914;2022-11-25T15:05:29;7.75;;;2.10;;
52724;SDS011;38621;52.830;6.914;2022-11-25T15:12:57;6.18;;;2.03;;
52724;SDS011;38621;52.830;6.914;2022-11-25T15:15:25;5.07;;;1.80;;
52724;SDS011;38621;52.830;6.914;2022-11-25T15:17:51;7.25;;;2.00;;
52724;SDS011;38621;52.830;6.914;2022-11-25T15:20:19;5.70;;;1.77;;
52724;SDS011;38621;52.830;6.914;2022-11-25T15:22:50;5.20;;;1.77;;
52724;SDS011;38621;52.830;6.914;2022-11-25T15:25:16;5.57;;;1.50;;
52724;SDS011;38621;52.830;6.914;2022-11-25T15:27:50;7.80;;;1.80;;
52724;SDS011;38621;52.830;6.914;2022-11-25T15:30:18;6.30;;;2.30;;
52724;SDS011;38621;52.830;6.914;2022-11-25T15:32:49;5.03;;;1.90;;
52724;SDS011;38621;52.830;6.914;2022-11-25T15:35:22;4.50;;;1.80;;
52724;SDS011;38621;52.830;6.914;2022-11-25T15:37:50;6.65;;;1.98;;
52724;SDS011;38621;52.830;6.914;2022-11-25T15:40:31;6.13;;;1.67;;
52724;SDS011;38621;52.830;6.914;2022-11-25T15:43:01;5.57;;;2.10;;
52724;SDS011;38621;52.830;6.914;2022-11-25T15:45:48;7.32;;;2.00;;
52724;SDS011;38621;52.830;6.914;2022-11-25T15:48:29;5.30;;;2.35;;
52724;SDS011;38621;52.830;6.914;2022-11-25T15:51:03;6.80;;;2.10;;
52724;SDS011;38621;52.830;6.914;2022-11-25T15:53:40;7.07;;;2.17;;
52724;SDS011;38621;52.830;6.914;2022-11-25T15:56:08;7.13;;;1.92;;
52724;SDS011;38621;52.830;6.914;2022-11-25T15:58:40;8.70;;;1.98;;
52724;SDS011;38621;52.830;6.914;2022-11-25T16:03:42;6.55;;;1.83;;
52724;SDS011;38621;52.830;6.914;2022-11-25T16:08:51;9.70;;;2.80;;
52724;SDS011;38621;52.830;6.914;2022-11-25T16:11:18;8.32;;;2.30;;
52724;SDS011;38621;52.830;6.914;2022-11-25T16:13:48;7.80;;;2.42;;
52724;SDS011;38621;52.830;6.914;2022-11-25T16:16:16;5.45;;;1.90;;
52724;SDS011;38621;52.830;6.914;2022-11-25T16:26:39;7.75;;;2.22;;
52724;SDS011;38621;52.830;6.914;2022-11-25T16:29:29;5.65;;;2.15;;
52724;SDS011;38621;52.830;6.914;2022-11-25T16:31:55;5.63;;;2.22;;
52724;SDS011;38621;52.830;6.914;2022-11-25T16:34:21;5.43;;;2.10;;
52724;SDS011;38621;52.830;6.914;2022-11-25T16:36:51;7.22;;;2.00;;
52724;SDS011;38621;52.830;6.914;2022-11-25T16:39:17;8.48;;;2.40;;
52724;SDS011;38621;52.830;6.914;2022-11-25T16:41:46;4.68;;;2.00;;
52724;SDS011;38621;52.830;6.914;2022-11-25T16:44:21;4.60;;;2.07;;
52724;SDS011;38621;52.830;6.914;2022-11-25T16:46:48;6.47;;;2.20;;
52724;SDS011;38621;52.830;6.914;2022-11-25T16:49:15;8.27;;;2.65;;
52724;SDS011;38621;52.830;6.914;2022-11-25T16:51:42;6.65;;;2.08;;
52724;SDS011;38621;52.830;6.914;2022-11-25T16:54:08;6.30;;;2.13;;
52724;SDS011;38621;52.830;6.914;2022-11-25T16:56:40;4.38;;;1.85;;
52724;SDS011;38621;52.830;6.914;2022-11-25T16:59:17;5.70;;;2.00;;
52724;SDS011;38621;52.830;6.914;2022-11-25T17:01:46;6.00;;;1.80;;
52724;SDS011;38621;52.830;6.914;2022-11-25T17:04:12;4.93;;;2.03;;
52724;SDS011;38621;52.830;6.914;2022-11-25T17:06:39;4.35;;;1.88;;
52724;SDS011;38621;52.830;6.914;2022-11-25T17:09:06;7.85;;;2.65;;
52724;SDS011;38621;52.830;6.914;2022-11-25T17:11:34;5.45;;;2.22;;
52724;SDS011;38621;52.830;6.914;2022-11-25T17:14:04;5.82;;;2.30;;
52724;SDS011;38621;52.830;6.914;2022-11-25T17:16:34;5.28;;;2.47;;
52724;SDS011;38621;52.830;6.914;2022-11-25T17:19:00;8.07;;;3.17;;
52724;SDS011;38621;52.830;6.914;2022-11-25T17:21:26;5.72;;;2.80;;
52724;SDS011;38621;52.830;6.914;2022-11-25T17:23:59;7.25;;;2.85;;